Time;durP1;ratioP1;P1;durP2;ratioP2;P2;SDS_P1;SDS_P2;PMS_P1;PMS_P2;Temp;Humidity;BMP_temperature;BMP_pressure;BME280_temperature;BME280_humidity;BME280_pressure;Samples;Min_cycle;Max_cycle;Signal;HPM_P1;HPM_P2
2023/12/10 00:00:53;;;;;;;23.92;4.05;;;7.50;99.90;;;;;;5113692;28;20023;-80
2023/12/10 00:03:19;;;;;;;20.98;4.15;;;7.50;99.90;;;;;;5113098;28;20020;-80
2023/12/10 00:05:45;;;;;;;20.77;4.18;;;7.50;99.90;;;;;;5113015;27;20051;-80
2023/12/10 00:08:10;;;;;;;21.33;4.40;;;7.50;99.90;;;;;;5112703;28;20028;-81
2023/12/10 00:10:36;;;;;;;24.38;4.78;;;7.50;99.90;;;;;;5112326;28;20468;-81
2023/12/10 00:13:02;;;;;;;19.02;4.30;;;7.40;99.90;;;;;;5113307;27;20377;-80
2023/12/10 00:15:28;;;;;;;20.30;4.57;;;7.40;99.90;;;;;;5111156;28;20027;-81
2023/12/10 00:17:53;;;;;;;23.10;4.22;;;7.40;99.90;;;;;;5113427;28;20028;-81
2023/12/10 00:20:19;;;;;;;20.13;3.80;;;7.40;99.90;;;;;;5112595;28;20110;-81
2023/12/10 00:22:46;;;;;;;16.85;3.65;;;7.40;99.90;;;;;;5113527;28;20027;-81
2023/12/10 00:25:12;;;;;;;20.73;3.65;;;7.30;99.90;;;;;;5112863;28;20119;-81
2023/12/10 00:27:37;;;;;;;21.80;3.92;;;7.40;99.90;;;;;;5113288;28;20120;-81
2023/12/10 00:30:04;;;;;;;19.70;4.00;;;7.40;99.90;;;;;;5111219;28;20030;-81
2023/12/10 00:32:30;;;;;;;21.48;3.45;;;7.40;99.90;;;;;;5111127;28;20353;-80
2023/12/10 00:34:55;;;;;;;26.98;4.25;;;7.40;99.90;;;;;;5112462;28;20043;-81
2023/12/10 00:37:21;;;;;;;15.75;3.47;;;7.40;99.90;;;;;;5111781;28;20023;-82
2023/12/10 00:39:47;;;;;;;21.58;4.03;;;7.40;99.90;;;;;;5112358;28;20031;-80
2023/12/10 00:42:12;;;;;;;17.75;3.75;;;7.40;99.90;;;;;;5112966;28;20023;-80
2023/12/10 00:44:38;;;;;;;15.80;3.97;;;7.40;99.90;;;;;;5113177;28;20019;-82
2023/12/10 00:47:04;;;;;;;16.52;3.40;;;7.40;99.90;;;;;;5112056;28;20031;-81
2023/12/10 00:49:30;;;;;;;20.90;3.53;;;7.40;99.90;;;;;;5112678;28;20200;-81
2023/12/10 00:51:55;;;;;;;20.00;3.33;;;7.40;99.90;;;;;;5112903;28;20027;-81
2023/12/10 00:54:21;;;;;;;18.35;3.55;;;7.40;99.90;;;;;;5112251;28;20115;-81
2023/12/10 00:56:47;;;;;;;23.20;4.72;;;7.40;99.90;;;;;;5117891;27;20078;-81
2023/12/10 00:59:12;;;;;;;15.13;3.50;;;7.40;99.90;;;;;;5114322;27;20027;-81
2023/12/10 01:01:38;;;;;;;21.98;3.28;;;7.30;99.90;;;;;;5114565;27;20027;-80
2023/12/10 01:04:04;;;;;;;14.48;3.00;;;7.40;99.90;;;;;;5134187;27;20042;-81
2023/12/10 01:06:29;;;;;;;13.75;2.47;;;7.30;99.90;;;;;;5132861;27;20031;-81
2023/12/10 01:08:55;;;;;;;18.00;2.88;;;7.30;99.90;;;;;;5133780;27;20064;-81
2023/12/10 01:11:21;;;;;;;17.35;2.75;;;7.30;99.90;;;;;;5133085;27;20475;-81
2023/12/10 01:13:46;;;;;;;16.02;2.80;;;7.30;99.90;;;;;;5133243;27;20034;-81
2023/12/10 01:16:18;;;;;;;17.17;2.72;;;7.20;99.90;;;;;;5132366;27;20034;-81
2023/12/10 01:18:47;;;;;;;18.48;2.92;;;7.20;99.90;;;;;;5133286;27;20045;-81
2023/12/10 01:21:13;;;;;;;15.18;2.97;;;7.20;99.90;;;;;;5132432;27;20030;-82
2023/12/10 01:23:39;;;;;;;13.75;2.13;;;7.30;99.90;;;;;;5133055;27;20023;-81
2023/12/10 01:26:12;;;;;;;16.73;2.80;;;7.30;99.90;;;;;;5133082;27;20027;-81
2023/12/10 01:28:39;;;;;;;11.85;2.70;;;7.30;99.90;;;;;;5132961;27;20027;-81
2023/12/10 01:31:05;;;;;;;9.57;2.00;;;7.30;99.90;;;;;;5132659;27;20080;-81
2023/12/10 01:33:31;;;;;;;12.95;2.67;;;7.30;99.90;;;;;;5113903;27;20084;-82
2023/12/10 01:35:57;;;;;;;10.98;2.38;;;7.40;99.90;;;;;;5132392;27;20463;-81
2023/12/10 01:38:22;;;;;;;15.93;2.20;;;7.40;99.90;;;;;;5132535;27;20023;-81
2023/12/10 01:40:48;;;;;;;22.88;2.67;;;7.40;99.90;;;;;;5113851;27;20027;-81
2023/12/10 01:43:17;;;;;;;8.68;1.95;;;7.40;99.90;;;;;;5132184;27;20030;-81
2023/12/10 01:45:56;;;;;;;16.02;2.33;;;7.40;99.90;;;;;;5132816;27;20087;-82
2023/12/10 01:48:23;;;;;;;14.98;3.25;;;7.40;99.90;;;;;;5132251;27;20146;-81
2023/12/10 01:50:50;;;;;;;11.40;2.47;;;7.40;99.90;;;;;;5132394;27;20026;-81
2023/12/10 01:53:16;;;;;;;12.23;1.92;;;7.40;99.90;;;;;;5132319;27;20109;-81
2023/12/10 01:55:44;;;;;;;8.57;2.35;;;7.40;99.90;;;;;;5132551;27;20302;-81
2023/12/10 01:58:10;;;;;;;13.07;2.72;;;7.40;99.90;;;;;;5132179;27;20432;-81
2023/12/10 02:00:38;;;;;;;16.60;2.65;;;7.40;99.90;;;;;;5131831;27;20067;-81
2023/12/10 02:03:04;;;;;;;9.90;2.15;;;7.40;99.90;;;;;;5132517;27;20046;-81
2023/12/10 02:05:31;;;;;;;10.75;2.65;;;7.40;99.90;;;;;;5112918;27;20030;-80
2023/12/10 02:07:57;;;;;;;11.35;2.58;;;7.40;99.90;;;;;;5113682;27;20035;-81
2023/12/10 02:10:22;;;;;;;15.02;3.05;;;7.40;99.90;;;;;;5113008;27;20023;-81
2023/12/10 02:12:52;;;;;;;15.85;2.42;;;7.50;99.90;;;;;;5132375;27;20034;-81
2023/12/10 02:15:19;;;;;;;11.35;2.20;;;7.50;99.90;;;;;;5131018;27;20440;-82
2023/12/10 02:17:46;;;;;;;10.82;2.47;;;7.50;99.90;;;;;;5131476;27;20059;-82
2023/12/10 02:20:12;;;;;;;15.95;2.80;;;7.50;99.90;;;;;;5131041;27;20083;-82
2023/12/10 02:23:22;;;;;;;9.27;2.70;;;7.50;99.90;;;;;;5131709;27;20043;-82
2023/12/10 02:25:48;;;;;;;20.67;3.67;;;7.60;99.90;;;;;;5099673;27;20090;-82
2023/12/10 02:28:21;;;;;;;12.02;2.72;;;7.50;99.90;;;;;;5113042;28;20082;-82
2023/12/10 02:30:47;;;;;;;13.77;3.55;;;7.60;99.90;;;;;;5131871;27;20022;-81
2023/12/10 02:33:12;;;;;;;15.18;3.78;;;7.50;99.90;;;;;;5113233;27;20451;-82
2023/12/10 02:35:39;;;;;;;20.30;3.75;;;7.60;99.90;;;;;;5131760;27;20062;-82
2023/12/10 02:38:04;;;;;;;15.50;3.83;;;7.60;99.90;;;;;;5113738;27;20047;-81
2023/12/10 02:40:30;;;;;;;19.30;4.32;;;7.50;99.90;;;;;;5131500;27;20055;-81
2023/12/10 02:42:56;;;;;;;16.05;3.35;;;7.60;99.90;;;;;;5131697;27;20023;-80
2023/12/10 02:45:22;;;;;;;23.30;6.25;;;7.60;99.90;;;;;;5131190;27;20114;-80
2023/12/10 02:47:47;;;;;;;24.38;6.30;;;7.60;99.90;;;;;;5113130;28;20065;-82
2023/12/10 02:50:13;;;;;;;23.17;4.75;;;7.50;99.90;;;;;;5131324;28;20035;-80
2023/12/10 02:52:39;;;;;;;14.90;3.20;;;7.60;99.90;;;;;;5131757;28;20338;-81
2023/12/10 02:55:06;;;;;;;16.75;2.40;;;7.60;99.90;;;;;;5131744;28;20046;-80
2023/12/10 02:57:32;;;;;;;16.65;2.85;;;7.60;99.90;;;;;;5112283;28;20131;-80
2023/12/10 02:59:58;;;;;;;10.93;2.50;;;7.60;99.90;;;;;;5131971;28;20065;-80
2023/12/10 03:02:23;;;;;;;18.13;2.92;;;7.60;99.90;;;;;;5131175;28;20497;-81
2023/12/10 03:04:49;;;;;;;18.95;3.58;;;7.60;99.90;;;;;;5113222;28;20024;-80
2023/12/10 03:07:15;;;;;;;13.68;2.88;;;7.60;99.90;;;;;;5131361;28;20452;-81
2023/12/10 03:09:41;;;;;;;15.25;2.70;;;7.60;99.90;;;;;;5131517;28;20084;-80
2023/12/10 03:12:06;;;;;;;19.45;3.22;;;7.70;99.90;;;;;;5113003;28;20076;-81
2023/12/10 03:14:32;;;;;;;16.55;3.70;;;7.70;99.90;;;;;;5130745;28;20129;-81
2023/12/10 03:16:58;;;;;;;21.23;3.50;;;7.70;99.90;;;;;;5112868;28;20023;-81
2023/12/10 03:19:23;;;;;;;12.65;2.45;;;7.70;99.90;;;;;;5131005;28;20023;-80
2023/12/10 03:21:49;;;;;;;17.02;3.33;;;7.70;99.90;;;;;;5131043;28;20023;-81
2023/12/10 03:24:15;;;;;;;17.88;3.40;;;7.70;99.90;;;;;;5131500;28;20534;-81
2023/12/10 03:26:41;;;;;;;17.75;3.17;;;7.70;99.90;;;;;;5130978;28;20034;-81
2023/12/10 03:29:06;;;;;;;13.57;2.63;;;7.70;99.90;;;;;;5131186;28;20151;-81
2023/12/10 03:31:32;;;;;;;14.18;3.05;;;7.70;99.90;;;;;;5133420;27;20120;-82
2023/12/10 03:33:58;;;;;;;12.43;2.30;;;7.60;99.90;;;;;;5135935;27;20023;-82
2023/12/10 03:36:23;;;;;;;10.23;2.97;;;7.70;99.90;;;;;;5135126;27;20431;-81
2023/12/10 03:38:49;;;;;;;15.77;3.90;;;7.70;99.90;;;;;;5136072;27;20068;-81
2023/12/10 03:41:15;;;;;;;13.00;3.70;;;7.70;99.90;;;;;;5134934;27;20023;-81
2023/12/10 03:43:41;;;;;;;12.07;2.70;;;7.70;99.90;;;;;;5134618;27;20034;-81
2023/12/10 03:46:06;;;;;;;17.98;6.72;;;7.70;99.90;;;;;;5135292;27;20102;-82
2023/12/10 03:48:32;;;;;;;25.45;8.57;;;7.80;99.90;;;;;;5134181;27;20027;-81
2023/12/10 03:50:58;;;;;;;21.75;5.15;;;7.80;99.90;;;;;;5135157;27;20031;-81
2023/12/10 03:53:23;;;;;;;24.70;6.25;;;7.80;99.90;;;;;;5115658;27;20114;-81
2023/12/10 03:55:49;;;;;;;18.10;4.95;;;7.80;99.90;;;;;;5134511;27;20106;-81
2023/12/10 03:58:15;;;;;;;23.85;6.03;;;7.80;99.90;;;;;;5135041;27;20059;-80
2023/12/10 04:00:41;;;;;;;30.05;7.68;;;7.90;99.90;;;;;;5134203;27;20023;-81
2023/12/10 04:03:08;;;;;;;18.48;6.13;;;7.90;99.90;;;;;;5135028;27;20058;-81
2023/12/10 04:05:34;;;;;;;17.70;4.85;;;7.90;99.90;;;;;;5134341;27;20031;-81
2023/12/10 04:07:59;;;;;;;18.90;4.38;;;7.90;99.90;;;;;;5134882;27;20131;-81
2023/12/10 04:10:25;;;;;;;11.27;3.33;;;8.00;99.90;;;;;;5116129;27;20080;-81
2023/12/10 04:12:51;;;;;;;15.98;3.00;;;8.00;99.90;;;;;;5115807;27;20024;-81
2023/12/10 04:15:17;;;;;;;22.15;5.82;;;8.00;99.90;;;;;;5135022;27;20041;-81
2023/12/10 04:17:43;;;;;;;16.75;4.30;;;8.00;99.90;;;;;;5133563;27;20429;-81
2023/12/10 04:20:09;;;;;;;15.20;3.38;;;8.00;99.90;;;;;;5134365;27;20491;-81
2023/12/10 04:22:35;;;;;;;11.80;2.58;;;8.00;99.90;;;;;;5133703;27;20051;-81
2023/12/10 04:25:01;;;;;;;13.73;3.70;;;8.00;99.90;;;;;;5134066;27;20070;-81
2023/12/10 04:27:27;;;;;;;14.02;2.53;;;8.10;99.90;;;;;;5115096;27;20055;-81
2023/12/10 04:29:53;;;;;;;14.68;2.63;;;8.10;99.90;;;;;;5134051;27;20042;-81
2023/12/10 04:32:18;;;;;;;15.50;3.30;;;8.10;99.90;;;;;;5115584;27;20027;-82
2023/12/10 04:34:44;;;;;;;10.80;2.65;;;8.10;99.90;;;;;;5115217;27;20452;-82
2023/12/10 04:37:10;;;;;;;10.38;2.55;;;8.20;99.90;;;;;;5133813;27;20408;-81
2023/12/10 04:39:36;;;;;;;14.82;2.53;;;8.20;99.90;;;;;;5133541;27;20019;-81
2023/12/10 04:42:02;;;;;;;9.43;2.40;;;8.10;99.90;;;;;;5133674;27;20027;-81
2023/12/10 04:44:28;;;;;;;18.13;3.03;;;8.10;99.90;;;;;;5133592;27;20084;-81
2023/12/10 04:46:54;;;;;;;15.35;3.03;;;8.10;99.90;;;;;;5134022;27;20035;-81
2023/12/10 04:49:20;;;;;;;13.13;2.72;;;8.10;99.90;;;;;;5133717;27;20072;-81
2023/12/10 04:51:45;;;;;;;20.30;3.30;;;8.10;99.90;;;;;;5133492;27;20101;-81
2023/12/10 04:54:11;;;;;;;13.70;3.40;;;8.10;99.90;;;;;;5133649;27;20031;-81
2023/12/10 04:56:37;;;;;;;18.40;3.40;;;8.10;99.90;;;;;;5132727;27;20051;-81
2023/12/10 04:59:02;;;;;;;19.75;3.22;;;8.20;99.90;;;;;;5115430;27;20031;-81
2023/12/10 05:01:28;;;;;;;14.40;3.22;;;8.20;99.90;;;;;;5114627;27;20087;-81
2023/12/10 05:03:54;;;;;;;11.77;2.70;;;8.20;99.90;;;;;;5133768;27;20471;-81
2023/12/10 05:06:19;;;;;;;15.35;3.55;;;8.20;99.90;;;;;;5133601;27;20106;-81
2023/12/10 05:08:45;;;;;;;11.05;2.80;;;8.20;99.90;;;;;;5114452;27;20385;-81
2023/12/10 05:11:11;;;;;;;14.20;3.63;;;8.20;99.90;;;;;;5133324;27;20019;-82
2023/12/10 05:13:36;;;;;;;14.88;4.50;;;8.20;99.90;;;;;;5133090;27;20019;-81
2023/12/10 05:16:03;;;;;;;14.32;3.70;;;8.20;99.90;;;;;;5133555;27;20030;-81
2023/12/10 05:18:29;;;;;;;14.77;3.20;;;8.20;99.90;;;;;;5132749;27;20026;-81
2023/12/10 05:20:55;;;;;;;14.35;2.67;;;8.20;99.90;;;;;;5114951;27;20031;-81
2023/12/10 05:23:21;;;;;;;13.35;2.92;;;8.10;99.90;;;;;;5133384;27;20027;-81
2023/12/10 05:25:46;;;;;;;12.18;2.67;;;8.20;99.90;;;;;;5114034;27;20062;-82
2023/12/10 05:28:12;;;;;;;19.05;2.70;;;8.20;99.90;;;;;;5133122;27;20115;-81
2023/12/10 05:30:38;;;;;;;9.05;2.13;;;8.20;99.90;;;;;;5132317;27;20024;-81
2023/12/10 05:33:03;;;;;;;17.02;3.10;;;8.20;99.90;;;;;;5132739;27;20019;-82
2023/12/10 05:35:29;;;;;;;12.35;3.25;;;8.20;99.90;;;;;;5113526;27;20031;-82
2023/12/10 05:37:55;;;;;;;14.60;3.90;;;8.20;99.90;;;;;;5132762;27;20110;-80
2023/12/10 05:40:20;;;;;;;15.10;4.53;;;8.20;99.90;;;;;;5132367;27;20024;-81
2023/12/10 05:42:46;;;;;;;13.02;3.80;;;8.20;99.90;;;;;;5132254;27;20126;-81
2023/12/10 05:45:12;;;;;;;11.23;4.38;;;8.10;99.90;;;;;;5132736;27;20061;-81
2023/12/10 05:47:38;;;;;;;16.05;4.80;;;8.10;99.90;;;;;;5113712;27;20130;-81
2023/12/10 05:50:04;;;;;;;15.85;4.38;;;8.10;99.90;;;;;;5132416;27;20435;-81
2023/12/10 05:52:30;;;;;;;14.23;2.90;;;8.10;99.90;;;;;;5131875;27;20023;-81
2023/12/10 05:54:55;;;;;;;11.30;3.88;;;8.10;99.90;;;;;;5131978;27;20409;-81
2023/12/10 05:57:21;;;;;;;14.45;4.20;;;8.10;99.90;;;;;;5132870;27;20054;-82
2023/12/10 05:59:47;;;;;;;18.15;4.00;;;8.10;99.90;;;;;;5132504;27;20038;-82
2023/12/10 06:02:13;;;;;;;13.27;3.03;;;8.20;99.90;;;;;;5132793;27;20046;-81
2023/12/10 06:04:38;;;;;;;13.85;2.80;;;8.10;99.90;;;;;;5113272;27;20072;-81
2023/12/10 06:07:04;;;;;;;18.88;7.28;;;8.10;99.90;;;;;;5132098;27;20573;-82
2023/12/10 06:09:30;;;;;;;12.68;3.60;;;8.10;99.90;;;;;;5131586;27;20026;-82
2023/12/10 06:11:55;;;;;;;17.52;4.35;;;8.20;99.90;;;;;;5113552;27;20027;-82
2023/12/10 06:14:21;;;;;;;29.05;8.40;;;8.10;99.90;;;;;;5132265;27;20070;-82
2023/12/10 06:16:47;;;;;;;24.63;5.03;;;8.20;99.90;;;;;;5131888;27;20034;-82
2023/12/10 06:19:12;;;;;;;16.73;3.78;;;8.30;99.90;;;;;;5132169;27;20019;-82
2023/12/10 06:21:38;;;;;;;17.83;3.67;;;8.50;99.90;;;;;;5131648;27;20031;-82
2023/12/10 06:24:04;;;;;;;16.15;3.55;;;8.60;99.90;;;;;;5132328;27;20027;-81
2023/12/10 06:26:30;;;;;;;12.85;3.28;;;8.70;99.90;;;;;;5131185;27;20039;-80
2023/12/10 06:28:56;;;;;;;11.40;2.15;;;8.80;99.90;;;;;;5131807;27;20389;-81
2023/12/10 06:31:22;;;;;;;12.98;2.08;;;8.80;99.90;;;;;;5113696;27;20088;-81
2023/12/10 06:33:47;;;;;;;13.45;2.85;;;8.90;99.90;;;;;;5131526;27;20039;-81
2023/12/10 06:36:13;;;;;;;12.57;2.25;;;8.90;99.90;;;;;;5113470;27;20034;-82
2023/12/10 06:38:39;;;;;;;11.75;1.88;;;8.80;99.90;;;;;;5131359;27;20105;-81
2023/12/10 06:41:06;;;;;;;6.43;1.63;;;8.80;99.90;;;;;;5131728;27;20072;-81
2023/12/10 06:43:31;;;;;;;10.45;2.72;;;8.70;99.90;;;;;;5131492;27;20085;-82
2023/12/10 06:46:00;;;;;;;9.38;2.75;;;8.60;99.90;;;;;;5131813;27;20067;-81
2023/12/10 06:48:26;;;;;;;7.88;2.00;;;8.60;99.90;;;;;;5131679;28;20050;-81
2023/12/10 06:50:53;;;;;;;7.72;1.40;;;8.50;99.90;;;;;;5112430;28;20076;-82
2023/12/10 06:53:18;;;;;;;9.18;1.52;;;8.50;99.90;;;;;;5131648;28;20059;-80
2023/12/10 06:55:45;;;;;;;5.10;1.20;;;8.60;99.90;;;;;;5131663;28;20443;-81
2023/12/10 06:58:11;;;;;;;8.40;1.60;;;8.70;99.90;;;;;;5135702;27;20099;-88
2023/12/10 07:00:39;;;;;;;6.95;2.13;;;8.80;99.90;;;;;;5122053;28;20038;-87
2023/12/10 07:03:05;;;;;;;8.15;1.63;;;8.80;99.90;;;;;;5127526;28;20023;-83
2023/12/10 07:05:33;;;;;;;10.70;1.60;;;8.80;99.90;;;;;;5148195;27;20042;-89
2023/12/10 07:08:01;;;;;;;10.75;2.20;;;8.70;99.90;;;;;;5156272;27;20123;-84
2023/12/10 07:10:30;;;;;;;10.75;2.00;;;8.70;99.90;;;;;;5150128;27;20153;-84
2023/12/10 07:12:56;;;;;;;8.65;2.08;;;8.70;99.90;;;;;;5118906;27;20126;-82
2023/12/10 07:15:22;;;;;;;9.23;1.85;;;8.60;99.90;;;;;;5136316;27;20074;-82
2023/12/10 07:17:47;;;;;;;14.07;2.88;;;8.50;99.90;;;;;;5135481;27;20456;-82
2023/12/10 07:20:13;;;;;;;9.20;2.13;;;8.50;99.90;;;;;;5116889;27;20172;-82
2023/12/10 07:22:39;;;;;;;15.20;2.30;;;8.50;99.90;;;;;;5135163;27;20102;-82
2023/12/10 07:25:05;;;;;;;10.30;2.53;;;8.50;99.90;;;;;;5135277;27;20045;-84
2023/12/10 07:27:32;;;;;;;11.88;2.53;;;8.40;99.90;;;;;;5136004;27;20095;-86
2023/12/10 07:29:58;;;;;;;13.80;2.47;;;8.40;99.90;;;;;;5117126;27;20023;-84
2023/12/10 07:32:24;;;;;;;13.38;2.20;;;8.40;99.90;;;;;;5136154;27;20023;-86
2023/12/10 07:34:53;;;;;;;14.00;2.10;;;8.40;99.90;;;;;;5116747;27;20027;-89
2023/12/10 07:37:18;;;;;;;17.95;2.60;;;8.30;99.90;;;;;;5117400;27;20054;-83
2023/12/10 07:39:51;;;;;;;14.30;2.53;;;8.30;99.90;;;;;;5135771;27;20126;-87
2023/12/10 07:42:22;;;;;;;11.65;2.05;;;8.30;99.90;;;;;;5138570;27;20027;-87
2023/12/10 07:44:48;;;;;;;9.73;2.10;;;8.30;99.90;;;;;;5117607;27;20129;-87
2023/12/10 07:47:17;;;;;;;10.68;2.40;;;8.20;99.90;;;;;;5117298;27;20122;-87
2023/12/10 07:49:45;;;;;;;10.10;2.03;;;8.20;99.90;;;;;;5116890;27;20115;-90
2023/12/10 07:52:21;;;;;;;8.75;2.08;;;8.00;99.90;;;;;;5118039;27;20508;-88
2023/12/10 07:55:06;;;;;;;13.45;2.35;;;8.00;99.90;;;;;;5135252;27;20094;-89
2023/12/10 07:57:34;;;;;;;10.27;3.55;;;8.00;99.90;;;;;;5114728;28;20134;-87
2023/12/10 08:00:00;;;;;;;9.98;2.33;;;7.90;99.90;;;;;;5115697;28;20051;-85
2023/12/10 08:02:32;;;;;;;12.52;3.00;;;7.90;99.90;;;;;;5115488;28;20023;-85
2023/12/10 08:05:03;;;;;;;10.97;2.73;;;7.80;99.90;;;;;;5113394;28;20085;-88
2023/12/10 08:07:34;;;;;;;18.58;2.60;;;7.80;99.90;;;;;;5113890;28;20046;-87
2023/12/10 08:10:10;;;;;;;7.07;2.45;;;7.80;99.90;;;;;;5113837;28;20053;-88
2023/12/10 08:12:35;;;;;;;12.68;2.60;;;7.70;99.90;;;;;;5114838;28;20103;-88
2023/12/10 08:15:04;;;;;;;12.65;3.03;;;7.70;99.90;;;;;;5113926;28;20112;-88
2023/12/10 08:17:33;;;;;;;17.42;4.80;;;7.60;99.90;;;;;;5120186;28;20020;-87
2023/12/10 08:20:11;;;;;;;27.92;9.73;;;7.60;99.90;;;;;;5118255;28;20032;-87
2023/12/10 08:22:40;;;;;;;38.85;19.15;;;7.50;99.90;;;;;;5115212;28;20096;-84
2023/12/10 08:25:06;;;;;;;15.95;4.80;;;7.50;99.90;;;;;;5114446;28;20031;-81
2023/12/10 08:27:32;;;;;;;18.27;4.63;;;7.40;99.90;;;;;;5115721;28;20050;-80
2023/12/10 08:29:58;;;;;;;14.70;3.38;;;7.40;99.90;;;;;;5114065;28;20023;-81
2023/12/10 08:32:23;;;;;;;13.32;3.17;;;7.40;99.90;;;;;;5115098;28;20023;-80
2023/12/10 08:34:49;;;;;;;14.15;3.40;;;7.40;99.90;;;;;;5114623;28;20489;-81
2023/12/10 08:37:15;;;;;;;15.05;4.90;;;7.40;99.90;;;;;;5114295;28;20030;-81
2023/12/10 08:39:42;;;;;;;24.98;3.80;;;7.40;99.90;;;;;;5114706;28;20433;-82
2023/12/10 08:42:08;;;;;;;32.13;9.90;;;7.50;99.90;;;;;;5114870;28;20051;-81
2023/12/10 08:44:33;;;;;;;20.10;4.32;;;7.50;99.90;;;;;;5115287;28;20433;-81
2023/12/10 08:46:59;;;;;;;26.40;3.65;;;7.50;99.90;;;;;;5113391;28;20063;-81
2023/12/10 08:49:25;;;;;;;29.17;9.07;;;7.50;99.90;;;;;;5113211;28;20113;-81
2023/12/10 08:51:51;;;;;;;40.13;12.32;;;7.50;99.90;;;;;;5112845;28;20390;-82
2023/12/10 08:54:16;;;;;;;25.92;6.95;;;7.50;99.90;;;;;;5112037;28;20452;-83
2023/12/10 08:56:42;;;;;;;27.60;5.78;;;7.50;99.90;;;;;;5116991;27;20079;-82
2023/12/10 08:59:09;;;;;;;36.22;11.80;;;7.60;99.90;;;;;;5134107;27;20020;-83
2023/12/10 09:01:35;;;;;;;37.40;10.00;;;7.50;99.90;;;;;;5133969;27;20084;-83
2023/12/10 09:04:03;;;;;;;53.38;16.40;;;7.60;99.90;;;;;;5133556;27;20023;-83
2023/12/10 09:06:29;;;;;;;36.70;8.90;;;7.70;99.90;;;;;;5115744;27;20039;-82
2023/12/10 09:08:55;;;;;;;41.28;9.40;;;7.80;99.90;;;;;;5133034;27;20303;-83
2023/12/10 09:11:20;;;;;;;44.63;7.70;;;7.80;99.90;;;;;;5134544;27;20043;-83
2023/12/10 09:13:46;;;;;;;31.17;5.00;;;7.90;99.90;;;;;;5133494;27;20023;-83
2023/12/10 09:16:12;;;;;;;26.55;6.60;;;8.00;99.90;;;;;;5133957;27;20027;-83
2023/12/10 09:18:37;;;;;;;26.85;4.75;;;8.10;99.90;;;;;;5133282;27;20023;-82
2023/12/10 09:21:03;;;;;;;33.70;5.43;;;8.10;99.90;;;;;;5132786;27;20110;-82
2023/12/10 09:23:29;;;;;;;39.17;6.75;;;8.20;99.90;;;;;;5114777;27;20115;-83
2023/12/10 09:25:55;;;;;;;51.00;18.08;;;8.30;99.90;;;;;;5132357;27;20091;-83
2023/12/10 09:28:20;;;;;;;30.65;7.63;;;8.30;99.90;;;;;;5132572;27;20031;-81
2023/12/10 09:30:46;;;;;;;36.90;11.25;;;8.40;99.90;;;;;;5113688;27;20052;-80
2023/12/10 09:33:12;;;;;;;34.05;7.50;;;8.50;99.90;;;;;;5114362;27;20024;-81
2023/12/10 09:35:38;;;;;;;34.15;11.32;;;8.50;99.90;;;;;;5132816;27;20413;-81
2023/12/10 09:38:03;;;;;;;33.75;10.90;;;8.50;99.90;;;;;;5132224;27;20019;-82
2023/12/10 09:40:31;;;;;;;18.52;4.07;;;8.60;99.90;;;;;;5114354;27;20042;-82
2023/12/10 09:42:57;;;;;;;23.25;2.90;;;8.60;99.90;;;;;;5131936;27;20037;-82
2023/12/10 09:45:23;;;;;;;14.63;2.55;;;8.60;99.90;;;;;;5133197;27;20125;-81
2023/12/10 09:47:50;;;;;;;14.13;3.03;;;8.70;99.90;;;;;;5132151;27;20067;-82
2023/12/10 09:50:17;;;;;;;12.13;2.08;;;8.70;99.90;;;;;;5114269;27;20068;-82
2023/12/10 09:52:43;;;;;;;17.38;3.20;;;8.70;99.90;;;;;;5132251;27;20019;-83
2023/12/10 09:55:09;;;;;;;8.95;1.88;;;8.70;99.90;;;;;;5132756;27;20095;-83
2023/12/10 09:57:35;;;;;;;8.63;1.63;;;8.80;99.90;;;;;;5140695;27;20133;-82
2023/12/10 10:00:01;;;;;;;6.13;1.40;;;8.80;99.90;;;;;;5141811;27;20027;-83
2023/12/10 10:02:31;;;;;;;3.78;1.33;;;8.90;99.90;;;;;;5142486;27;20035;-83
2023/12/10 10:04:57;;;;;;;6.93;1.58;;;9.00;99.90;;;;;;5148380;27;20023;-85
2023/12/10 10:07:23;;;;;;;4.32;1.38;;;8.90;99.90;;;;;;5136844;27;20305;-83
2023/12/10 10:09:48;;;;;;;3.05;1.02;;;9.00;99.90;;;;;;5132454;27;20042;-83
2023/12/10 10:12:14;;;;;;;7.85;1.30;;;8.90;99.90;;;;;;5133291;27;20027;-83
2023/12/10 10:14:54;;;;;;;5.57;1.40;;;9.10;99.90;;;;;;5113768;27;20479;-83
2023/12/10 10:17:30;;;;;;;5.70;1.70;;;9.10;99.90;;;;;;5132807;27;20023;-83
2023/12/10 10:19:57;;;;;;;8.18;1.83;;;9.20;99.90;;;;;;5131703;27;20140;-83
2023/12/10 10:22:29;;;;;;;6.40;1.58;;;9.30;99.90;;;;;;5132195;27;20068;-82
2023/12/10 10:24:55;;;;;;;11.73;1.92;;;9.50;99.90;;;;;;5132131;27;20027;-85
2023/12/10 10:27:21;;;;;;;10.10;2.28;;;9.60;99.90;;;;;;5132042;27;20032;-83
2023/12/10 10:29:53;;;;;;;8.25;1.77;;;9.80;99.90;;;;;;5131507;27;20092;-84
2023/12/10 10:32:20;;;;;;;7.07;1.92;;;9.80;99.90;;;;;;5132024;27;20031;-82
2023/12/10 10:34:46;;;;;;;13.32;2.22;;;9.90;99.90;;;;;;5131678;27;20024;-81
2023/12/10 10:37:16;;;;;;;8.18;1.80;;;9.90;99.90;;;;;;5131606;27;20035;-83
2023/12/10 10:39:42;;;;;;;11.18;2.67;;;10.00;99.90;;;;;;5131298;27;20429;-83
2023/12/10 10:42:10;;;;;;;13.10;2.10;;;10.10;99.90;;;;;;5131236;27;20055;-83
2023/12/10 10:44:40;;;;;;;16.25;2.40;;;10.10;99.90;;;;;;5131766;27;20043;-82
2023/12/10 10:47:07;;;;;;;12.27;2.78;;;10.00;99.90;;;;;;5113025;27;20087;-82
2023/12/10 10:49:35;;;;;;;14.95;2.30;;;10.00;99.90;;;;;;5131294;27;20110;-82
2023/12/10 10:52:04;;;;;;;17.13;2.50;;;10.10;99.90;;;;;;5130519;28;20104;-82
2023/12/10 10:54:31;;;;;;;14.23;2.42;;;10.10;99.90;;;;;;5131691;28;20035;-82
2023/12/10 10:56:57;;;;;;;13.32;2.38;;;10.10;99.90;;;;;;5131096;28;20047;-83
2023/12/10 10:59:30;;;;;;;13.60;3.20;;;10.20;99.90;;;;;;5131363;28;20163;-83
2023/12/10 11:01:59;;;;;;;13.82;2.75;;;10.10;99.90;;;;;;5112592;28;20048;-82
2023/12/10 11:04:37;;;;;;;14.70;2.72;;;10.10;99.90;;;;;;5131409;28;20026;-82
2023/12/10 11:07:04;;;;;;;15.80;2.85;;;10.20;99.90;;;;;;5130853;28;20175;-82
2023/12/10 11:09:31;;;;;;;13.90;3.03;;;10.10;99.90;;;;;;5130865;28;20095;-82
2023/12/10 11:11:58;;;;;;;18.67;3.30;;;10.20;99.90;;;;;;5130792;28;20617;-82
2023/12/10 11:14:24;;;;;;;19.92;3.83;;;10.10;99.90;;;;;;5131423;28;20030;-82
2023/12/10 11:16:54;;;;;;;17.45;3.67;;;10.20;99.90;;;;;;5112485;28;20032;-81
2023/12/10 11:19:21;;;;;;;19.27;4.22;;;10.30;99.90;;;;;;5131636;28;20504;-83
2023/12/10 11:21:48;;;;;;;21.40;3.72;;;10.30;99.90;;;;;;5130945;28;20057;-82
2023/12/10 11:24:14;;;;;;;19.52;3.17;;;10.30;99.90;;;;;;5131181;28;20030;-82
2023/12/10 11:26:40;;;;;;;22.25;4.15;;;10.30;99.90;;;;;;5130810;28;20378;-82
2023/12/10 11:29:06;;;;;;;22.20;3.88;;;10.40;99.90;;;;;;5111889;28;20027;-82
2023/12/10 11:31:32;;;;;;;24.40;4.07;;;10.40;99.90;;;;;;5131409;28;20042;-83
2023/12/10 11:33:58;;;;;;;20.95;4.22;;;10.40;99.90;;;;;;5130388;28;20023;-82
2023/12/10 11:36:24;;;;;;;24.45;4.65;;;10.40;99.90;;;;;;5131510;28;20401;-82
2023/12/10 11:38:50;;;;;;;28.40;4.15;;;10.40;99.90;;;;;;5130575;28;20022;-82
2023/12/10 11:41:16;;;;;;;25.88;4.57;;;10.40;99.90;;;;;;5112969;28;20495;-82
2023/12/10 11:43:48;;;;;;;23.70;4.30;;;10.40;99.90;;;;;;5131009;28;20019;-82
2023/12/10 11:46:21;;;;;;;29.00;5.00;;;10.40;99.90;;;;;;5131316;28;20039;-82
2023/12/10 11:48:47;;;;;;;22.23;3.80;;;10.50;99.90;;;;;;5131328;28;20020;-82
2023/12/10 11:51:13;;;;;;;24.70;3.60;;;10.50;99.90;;;;;;5131176;27;20415;-82
2023/12/10 11:53:40;;;;;;;30.35;4.75;;;10.50;99.90;;;;;;5134869;27;20349;-82
2023/12/10 11:56:08;;;;;;;25.70;4.13;;;10.50;99.90;;;;;;5134613;27;20027;-82
2023/12/10 11:58:34;;;;;;;28.27;4.57;;;10.60;99.90;;;;;;5134716;27;20101;-81
2023/12/10 12:01:00;;;;;;;26.67;4.93;;;10.70;99.90;;;;;;5134328;27;20361;-82
2023/12/10 12:03:29;;;;;;;23.70;4.68;;;10.70;99.90;;;;;;5135907;27;20542;-82
2023/12/10 12:05:55;;;;;;;25.17;5.20;;;10.70;99.90;;;;;;5134616;27;20031;-82
2023/12/10 12:08:28;;;;;;;22.60;4.60;;;10.70;99.90;;;;;;5135539;27;20353;-82
2023/12/10 12:10:55;;;;;;;32.83;4.90;;;10.70;99.90;;;;;;5134613;27;20031;-81
2023/12/10 12:13:21;;;;;;;26.55;5.22;;;10.70;99.90;;;;;;5135024;27;20023;-81
2023/12/10 12:15:48;;;;;;;26.70;5.03;;;10.70;99.90;;;;;;5135044;27;20421;-82
2023/12/10 12:18:14;;;;;;;21.42;4.75;;;10.70;99.90;;;;;;5134482;27;20066;-81
2023/12/10 12:20:40;;;;;;;22.77;4.40;;;10.70;99.90;;;;;;5116153;27;20329;-81
2023/12/10 12:23:06;;;;;;;23.55;4.95;;;10.70;99.90;;;;;;5134013;27;20122;-81
2023/12/10 12:25:34;;;;;;;26.75;4.80;;;10.70;99.90;;;;;;5134442;27;20158;-82
2023/12/10 12:28:07;;;;;;;31.27;6.00;;;10.70;99.90;;;;;;5115214;27;20020;-81
2023/12/10 12:30:37;;;;;;;24.63;5.20;;;10.80;99.90;;;;;;5134752;27;20027;-81
2023/12/10 12:33:03;;;;;;;30.02;5.00;;;10.70;99.90;;;;;;5115120;27;20084;-82
2023/12/10 12:35:30;;;;;;;22.05;4.93;;;10.80;99.90;;;;;;5134631;27;20083;-81
2023/12/10 12:37:56;;;;;;;21.05;4.38;;;10.70;99.90;;;;;;5134860;27;20027;-82
2023/12/10 12:40:24;;;;;;;27.92;5.53;;;10.70;99.90;;;;;;5136109;27;20030;-78
2023/12/10 12:42:50;;;;;;;25.50;4.50;;;10.60;99.90;;;;;;5116386;27;20372;-81